Time;durP1;ratioP1;P1;durP2;ratioP2;P2;SDS_P1;SDS_P2;PMS_P1;PMS_P2;Temp;Humidity;BMP_temperature;BMP_pressure;BME280_temperature;BME280_humidity;BME280_pressure;Samples;Min_cycle;Max_cycle;Signal;HPM_P1;HPM_P2
2022/03/04 00:02:05;;;;;;;2.20;2.00;;;;;;;17.27;40.93;102038.44;5103629;28;20055;-45
2022/03/04 00:04:34;;;;;;;1.92;1.70;;;;;;;17.25;40.65;102043.97;5104112;28;20042;-43
2022/03/04 00:07:00;;;;;;;1.55;1.45;;;;;;;17.24;40.86;102042.25;5103743;28;20036;-43
2022/03/04 00:09:25;;;;;;;1.73;1.63;;;;;;;17.20;40.90;102032.72;5103335;28;20038;-41
2022/03/04 00:11:50;;;;;;;2.05;1.85;;;;;;;17.18;41.01;102038.25;5102389;28;20081;-41
2022/03/04 00:14:16;;;;;;;2.15;1.95;;;;;;;17.16;41.09;102042.91;5102852;28;20020;-43
2022/03/04 00:16:41;;;;;;;2.00;1.70;;;;;;;17.18;41.00;102045.47;5102047;28;20408;-43
2022/03/04 00:19:07;;;;;;;2.22;1.90;;;;;;;17.16;41.01;102050.09;5103831;28;20077;-42
2022/03/04 00:21:41;;;;;;;1.90;1.70;;;;;;;17.14;40.96;102047.53;5103597;28;20054;-40
2022/03/04 00:24:07;;;;;;;1.90;1.70;;;;;;;17.15;40.86;102051.94;5107175;28;20051;-41
2022/03/04 00:26:32;;;;;;;2.33;1.50;;;;;;;17.13;41.00;102053.06;5107729;28;20039;-41
2022/03/04 00:28:58;;;;;;;1.88;1.65;;;;;;;17.11;40.91;102061.22;5106791;28;20028;-40
2022/03/04 00:31:24;;;;;;;1.77;1.63;;;;;;;17.11;40.92;102063.06;5107187;28;20023;-42
2022/03/04 00:33:50;;;;;;;2.28;2.00;;;;;;;17.09;41.05;102060.53;5107465;28;20104;-42
2022/03/04 00:36:16;;;;;;;1.70;1.60;;;;;;;17.07;41.06;102064.31;5107447;28;20058;-40
2022/03/04 00:38:41;;;;;;;2.03;1.77;;;;;;;17.06;40.98;102062.59;5106934;28;20024;-41
2022/03/04 00:41:06;;;;;;;2.40;1.90;;;;;;;17.04;40.99;102062.75;5107308;28;20054;-46
2022/03/04 00:43:32;;;;;;;1.70;1.60;;;;;;;17.03;40.99;102058.34;5106507;28;20069;-40
2022/03/04 00:45:57;;;;;;;2.00;1.70;;;;;;;17.01;40.96;102060.31;5106897;28;20020;-39
2022/03/04 00:48:22;;;;;;;1.75;1.58;;;;;;;16.99;40.97;102055.06;5107297;28;20032;-43
2022/03/04 00:50:47;;;;;;;1.75;1.65;;;;;;;16.98;40.92;102060.56;5107086;28;20028;-43
2022/03/04 00:53:12;;;;;;;2.05;1.83;;;;;;;16.97;40.98;102058.84;5107081;28;20099;-39
2022/03/04 00:55:38;;;;;;;2.50;1.98;;;;;;;16.95;40.96;102066.22;5107134;28;20027;-41
2022/03/04 00:58:05;;;;;;;1.98;1.80;;;;;;;16.94;41.02;102072.53;5106150;28;20036;-42
2022/03/04 01:00:31;;;;;;;2.03;1.83;;;;;;;16.92;40.98;102072.69;5106371;28;20040;-40
2022/03/04 01:02:56;;;;;;;1.85;1.67;;;;;;;16.90;40.97;102066.56;5106860;28;20020;-39
2022/03/04 01:05:21;;;;;;;2.03;1.77;;;;;;;16.86;40.97;102073.16;5106861;28;20058;-40
2022/03/04 01:07:46;;;;;;;1.67;1.50;;;;;;;16.87;40.72;102074.03;5106527;28;20032;-41
2022/03/04 01:10:12;;;;;;;2.33;1.80;;;;;;;16.87;41.07;102079.41;5102283;28;20028;-40
2022/03/04 01:12:37;;;;;;;1.70;1.60;;;;;;;16.86;41.06;102083.06;5101952;28;20077;-40
2022/03/04 01:15:03;;;;;;;2.03;1.77;;;;;;;16.85;40.92;102084.03;5106371;28;20039;-43
2022/03/04 01:17:28;;;;;;;1.80;1.50;;;;;;;16.83;40.96;102086.88;5106346;28;20020;-40
2022/03/04 01:19:53;;;;;;;2.83;2.00;;;;;;;16.80;41.08;102076.38;5106660;28;20070;-41
2022/03/04 01:22:18;;;;;;;2.83;2.00;;;;;;;16.80;41.16;102080.91;5106561;28;20028;-39
2022/03/04 01:24:43;;;;;;;2.05;1.65;;;;;;;16.80;40.96;102088.94;5105181;28;20028;-41
2022/03/04 01:27:09;;;;;;;2.13;1.85;;;;;;;16.79;40.92;102087.25;5106354;28;20062;-40
2022/03/04 01:29:34;;;;;;;2.05;1.75;;;;;;;16.77;40.91;102079.31;5105341;28;20020;-40
2022/03/04 01:31:59;;;;;;;1.50;1.40;;;;;;;16.75;41.00;102078.59;5105995;28;20066;-40
2022/03/04 01:34:24;;;;;;;1.92;1.77;;;;;;;16.74;41.32;102074.19;5104730;28;20020;-40
2022/03/04 01:36:50;;;;;;;2.42;1.80;;;;;;;16.72;40.95;102068.94;5106314;28;20047;-40
2022/03/04 01:39:15;;;;;;;1.75;1.65;;;;;;;16.72;41.10;102065.38;5105898;28;20039;-44
2022/03/04 01:41:40;;;;;;;2.10;1.70;;;;;;;16.58;40.97;102038.81;5106201;28;20020;-40
2022/03/04 01:44:05;;;;;;;1.95;1.73;;;;;;;16.70;40.78;102067.34;5105340;28;20038;-42
2022/03/04 01:46:32;;;;;;;1.60;1.50;;;;;;;16.66;40.89;102057.84;5105597;28;20024;-41
2022/03/04 01:48:57;;;;;;;1.92;1.77;;;;;;;16.66;40.92;102069.41;5106385;28;20020;-42
2022/03/04 01:51:22;;;;;;;1.65;1.55;;;;;;;16.64;40.92;102057.94;5105938;28;20024;-41
2022/03/04 01:53:48;;;;;;;2.33;1.85;;;;;;;16.63;40.94;102058.06;5105576;28;20028;-41
2022/03/04 01:56:13;;;;;;;1.70;1.60;;;;;;;16.62;40.88;102067.13;5105965;28;20027;-43
2022/03/04 01:58:38;;;;;;;2.28;1.80;;;;;;;16.59;40.98;102068.22;5104742;28;20047;-41
2022/03/04 02:01:05;;;;;;;1.70;1.60;;;;;;;16.57;40.92;102061.28;5105319;28;20087;-40
2022/03/04 02:03:30;;;;;;;1.60;1.50;;;;;;;16.56;40.77;102064.91;5105930;28;20087;-43
2022/03/04 02:05:55;;;;;;;2.05;1.70;;;;;;;16.55;40.89;102061.38;5105832;28;20042;-41
2022/03/04 02:08:20;;;;;;;1.77;1.65;;;;;;;16.54;40.86;102058.84;5105394;28;20028;-40
2022/03/04 02:10:46;;;;;;;1.85;1.63;;;;;;;16.49;40.85;102054.69;5105404;28;20562;-41
2022/03/04 02:13:11;;;;;;;1.98;1.88;;;;;;;16.49;40.84;102059.22;5105076;28;20400;-42
2022/03/04 02:15:36;;;;;;;1.52;1.42;;;;;;;16.50;40.95;102058.22;5105485;28;20031;-40
2022/03/04 02:18:17;;;;;;;1.88;1.77;;;;;;;16.49;40.97;102051.16;5105250;28;20027;-40
2022/03/04 02:20:45;;;;;;;1.98;1.67;;;;;;;16.48;40.89;102057.47;5105553;28;20038;-40
2022/03/04 02:23:14;;;;;;;1.90;1.75;;;;;;;16.46;41.20;102056.75;5105369;28;20032;-41
2022/03/04 02:25:49;;;;;;;2.28;1.77;;;;;;;16.44;40.93;102054.22;5105394;28;20024;-41
2022/03/04 02:28:15;;;;;;;1.40;1.30;;;;;;;16.42;40.98;102044.56;5104510;28;20032;-41
2022/03/04 02:30:41;;;;;;;2.20;2.00;;;;;;;16.39;40.94;102048.34;5103886;28;20059;-41
2022/03/04 02:33:07;;;;;;;2.67;2.20;;;;;;;16.39;40.93;102048.34;5104139;28;20439;-42
2022/03/04 02:35:34;;;;;;;2.28;1.80;;;;;;;16.37;41.00;102050.31;5105143;28;20031;-41
2022/03/04 02:37:59;;;;;;;1.88;1.70;;;;;;;16.37;41.04;102047.63;5105030;28;20035;-43
2022/03/04 02:40:25;;;;;;;2.95;1.92;;;;;;;16.35;40.96;102054.94;5104878;28;20032;-41
2022/03/04 02:42:50;;;;;;;2.10;1.90;;;;;;;16.33;40.97;102051.53;5104550;28;20050;-41
2022/03/04 02:45:15;;;;;;;2.10;1.83;;;;;;;16.32;40.99;102047.16;5104056;28;20048;-41
2022/03/04 02:47:42;;;;;;;1.90;1.77;;;;;;;16.26;40.88;102036.91;5104392;28;20024;-42
2022/03/04 02:50:08;;;;;;;2.13;1.92;;;;;;;16.31;41.01;102050.81;5104920;28;20514;-42
2022/03/04 02:52:33;;;;;;;1.67;1.58;;;;;;;16.20;40.96;102030.19;5104347;28;20024;-43
2022/03/04 02:54:58;;;;;;;1.50;1.40;;;;;;;16.16;40.89;102026.06;5103053;28;20176;-43
2022/03/04 02:57:23;;;;;;;1.67;1.58;;;;;;;16.27;41.06;102045.78;5103372;28;20050;-40
2022/03/04 02:59:49;;;;;;;1.77;1.67;;;;;;;16.27;40.97;102051.16;5103722;28;20048;-43
2022/03/04 03:02:14;;;;;;;1.83;1.58;;;;;;;16.27;41.10;102056.53;5104288;28;20084;-41
2022/03/04 03:04:39;;;;;;;1.90;1.80;;;;;;;16.24;41.03;102042.41;5104719;28;20036;-42
2022/03/04 03:07:04;;;;;;;1.80;1.70;;;;;;;16.24;40.49;102052.28;5104800;28;20484;-42
2022/03/04 03:09:30;;;;;;;1.70;1.60;;;;;;;16.23;41.10;102058.63;5104091;28;20423;-44
2022/03/04 03:11:55;;;;;;;2.38;2.00;;;;;;;16.22;41.02;102049.69;5098500;28;20030;-43
2022/03/04 03:14:20;;;;;;;1.55;1.45;;;;;;;16.22;41.18;102046.16;5103619;28;20031;-39
2022/03/04 03:16:45;;;;;;;2.10;1.90;;;;;;;16.20;40.90;102056.19;5104070;28;20083;-42
2022/03/04 03:19:11;;;;;;;2.10;1.90;;;;;;;16.17;40.85;102057.28;5104516;28;20039;-42
2022/03/04 03:21:36;;;;;;;2.47;2.20;;;;;;;16.19;40.98;102066.06;5104243;28;20020;-39
2022/03/04 03:24:01;;;;;;;2.15;1.80;;;;;;;16.18;40.64;102067.06;5104057;28;20035;-41
2022/03/04 03:26:26;;;;;;;1.95;1.75;;;;;;;16.19;40.87;102075.94;5104380;28;20012;-41
2022/03/04 03:28:52;;;;;;;2.10;1.67;;;;;;;16.18;40.90;102071.53;5103389;28;20020;-42
2022/03/04 03:31:17;;;;;;;1.70;1.60;;;;;;;16.16;40.51;102066.31;5103599;28;20495;-40
2022/03/04 03:33:43;;;;;;;2.47;2.20;;;;;;;16.16;40.92;102070.81;5104077;28;20479;-40
2022/03/04 03:36:08;;;;;;;1.70;1.60;;;;;;;16.12;40.89;102069.34;5104218;28;20055;-42
2022/03/04 03:38:34;;;;;;;1.98;1.77;;;;;;;16.13;40.93;102071.91;5103814;28;20051;-43
2022/03/04 03:40:59;;;;;;;1.63;1.52;;;;;;;16.13;40.73;102066.53;5104120;28;20627;-42
2022/03/04 03:43:24;;;;;;;1.90;1.60;;;;;;;16.12;40.88;102075.56;5103417;28;20412;-42
2022/03/04 03:45:49;;;;;;;1.88;1.77;;;;;;;16.11;40.90;102076.56;5103372;28;20455;-39
2022/03/04 03:48:15;;;;;;;1.60;1.50;;;;;;;16.09;40.82;102083.00;5097230;28;20465;-42
2022/03/04 03:50:40;;;;;;;1.75;1.65;;;;;;;16.09;40.90;102083.00;5083899;28;20090;-43
2022/03/04 03:53:06;;;;;;;1.70;1.60;;;;;;;16.07;40.91;102083.13;5096255;28;20040;-42
2022/03/04 03:55:31;;;;;;;1.65;1.55;;;;;;;16.07;40.92;102091.19;5102594;28;20046;-42
2022/03/04 03:57:56;;;;;;;2.00;1.80;;;;;;;16.06;40.88;102089.50;5102932;28;20489;-42
2022/03/04 04:00:21;;;;;;;1.95;1.75;;;;;;;16.05;40.93;102084.22;5103722;28;20072;-41
2022/03/04 04:02:47;;;;;;;1.80;1.70;;;;;;;16.05;40.84;102089.59;5103611;28;20035;-40
2022/03/04 04:05:12;;;;;;;2.22;1.90;;;;;;;16.01;40.87;102102.38;5103732;28;20114;-41
2022/03/04 04:07:37;;;;;;;1.75;1.65;;;;;;;15.98;40.82;102094.59;5103559;28;20041;-40
2022/03/04 04:10:03;;;;;;;1.98;1.80;;;;;;;16.00;40.87;102101.53;5100544;28;20032;-42
2022/03/04 04:12:28;;;;;;;2.13;1.90;;;;;;;15.97;41.04;102093.75;5097748;28;20040;-40
2022/03/04 04:14:54;;;;;;;1.63;1.52;;;;;;;15.98;41.06;102094.59;5103020;28;20597;-42
2022/03/04 04:17:19;;;;;;;2.05;1.85;;;;;;;15.97;40.96;102099.13;5103449;28;20583;-41
2022/03/04 04:19:44;;;;;;;2.10;1.83;;;;;;;15.96;41.05;102102.75;5103893;28;20063;-45
2022/03/04 04:22:10;;;;;;;2.45;2.20;;;;;;;15.96;40.98;102097.38;5103340;28;20067;-40
2022/03/04 04:24:35;;;;;;;1.80;1.70;;;;;;;15.96;41.04;102100.06;5103424;28;20035;-42
2022/03/04 04:27:00;;;;;;;1.60;1.50;;;;;;;15.96;41.09;102102.75;5103559;28;20572;-41
2022/03/04 04:29:26;;;;;;;2.00;1.80;;;;;;;15.93;40.86;102104.84;5102771;28;20397;-42
2022/03/04 04:31:51;;;;;;;2.00;1.80;;;;;;;15.96;40.98;102099.22;5103256;28;20020;-40
2022/03/04 04:34:16;;;;;;;2.08;1.88;;;;;;;15.94;40.99;102093.13;5103714;28;20035;-42
2022/03/04 04:36:41;;;;;;;2.00;1.80;;;;;;;15.93;41.04;102092.28;5103428;28;20020;-40
2022/03/04 04:39:07;;;;;;;2.40;2.20;;;;;;;15.91;40.86;102094.22;5102919;28;20028;-44
2022/03/04 04:41:32;;;;;;;1.70;1.60;;;;;;;15.90;41.12;102088.97;5103365;28;20031;-44
2022/03/04 04:43:57;;;;;;;1.98;1.80;;;;;;;15.90;41.02;102091.66;5102500;28;20027;-42
2022/03/04 04:46:22;;;;;;;1.92;1.77;;;;;;;15.89;41.24;102090.81;5101781;28;20038;-46
2022/03/04 04:48:48;;;;;;;2.25;2.05;;;;;;;15.88;41.16;102085.53;5103545;28;20035;-40
2022/03/04 04:51:13;;;;;;;1.85;1.70;;;;;;;15.84;41.13;102084.94;5103344;28;20024;-40
2022/03/04 04:53:39;;;;;;;2.13;1.92;;;;;;;15.88;41.17;102098.97;5103012;28;20035;-43
2022/03/04 04:56:04;;;;;;;1.85;1.75;;;;;;;15.86;41.15;102100.91;5103296;28;20020;-40
2022/03/04 04:58:30;;;;;;;2.22;1.58;;;;;;;15.84;41.19;102101.03;5102177;28;20016;-39
2022/03/04 05:00:55;;;;;;;2.00;1.80;;;;;;;15.79;41.08;102100.53;5101525;28;20046;-43
2022/03/04 05:03:24;;;;;;;1.70;1.60;;;;;;;15.84;41.11;102117.09;5103468;28;20115;-41
2022/03/04 05:05:51;;;;;;;1.77;1.67;;;;;;;15.84;41.13;102119.78;5103016;28;20089;-40
2022/03/04 05:08:17;;;;;;;2.08;1.88;;;;;;;15.81;41.22;102108.47;5103629;28;20028;-41
2022/03/04 05:10:42;;;;;;;1.95;1.80;;;;;;;15.81;41.32;102116.53;5106656;28;20026;-41
2022/03/04 05:13:07;;;;;;;1.98;1.80;;;;;;;15.81;41.28;102111.16;5105925;28;20027;-40
2022/03/04 05:15:32;;;;;;;2.22;1.60;;;;;;;15.77;41.13;102109.69;5106660;28;20177;-41
2022/03/04 05:17:58;;;;;;;2.22;2.00;;;;;;;15.77;41.14;102112.38;5106433;28;20027;-39
2022/03/04 05:20:23;;;;;;;2.08;1.88;;;;;;;15.73;41.31;102101.03;5106646;28;20079;-40
2022/03/04 05:22:48;;;;;;;2.38;1.85;;;;;;;15.77;41.20;102104.31;5106129;28;20040;-40
2022/03/04 05:25:14;;;;;;;1.85;1.75;;;;;;;15.76;41.28;102106.16;5106474;28;20043;-39
2022/03/04 05:27:40;;;;;;;2.00;1.80;;;;;;;15.75;41.28;102112.47;5104925;28;20020;-40
2022/03/04 05:30:05;;;;;;;2.13;1.92;;;;;;;15.74;41.24;102116.97;5106218;28;20372;-42
2022/03/04 05:32:31;;;;;;;1.83;1.73;;;;;;;15.72;41.21;102110.88;5106092;28;20123;-39
2022/03/04 05:34:56;;;;;;;2.10;1.80;;;;;;;15.73;41.36;102109.91;5106356;28;20083;-43
2022/03/04 05:37:21;;;;;;;2.13;1.85;;;;;;;15.72;41.19;102115.41;5106438;28;20051;-42
2022/03/04 05:39:47;;;;;;;1.92;1.83;;;;;;;15.72;41.31;102104.69;5105906;28;20050;-42
2022/03/04 05:42:12;;;;;;;2.00;1.77;;;;;;;15.71;41.29;102111.84;5106062;28;20024;-42
2022/03/04 05:44:37;;;;;;;2.10;1.90;;;;;;;15.72;41.29;102118.09;5104933;28;20085;-43
2022/03/04 05:47:03;;;;;;;2.35;2.03;;;;;;;15.72;41.22;102110.88;5105228;28;20042;-43
2022/03/04 05:49:28;;;;;;;2.42;2.15;;;;;;;15.75;41.20;102121.34;5105549;28;20030;-43
2022/03/04 05:51:54;;;;;;;2.78;2.30;;;;;;;15.68;41.19;102104.06;5102045;28;20035;-40
2022/03/04 05:54:19;;;;;;;3.90;2.60;;;;;;;15.81;41.05;102122.72;5102103;28;20028;-41
2022/03/04 05:56:44;;;;;;;2.72;2.47;;;;;;;15.76;41.04;102111.50;5102853;28;20023;-41
2022/03/04 05:59:09;;;;;;;2.88;2.40;;;;;;;15.88;41.01;102126.63;5103400;28;20074;-39
2022/03/04 06:01:36;;;;;;;2.67;2.40;;;;;;;15.91;40.89;102134.44;5105326;28;20048;-41
2022/03/04 06:04:01;;;;;;;2.55;2.35;;;;;;;15.86;40.96;102123.22;5104060;28;20064;-42
2022/03/04 06:06:26;;;;;;;3.05;2.63;;;;;;;15.90;40.81;102127.38;5091504;28;20028;-42
2022/03/04 06:08:52;;;;;;;2.85;2.60;;;;;;;15.95;40.89;102135.91;5098922;28;20114;-40
2022/03/04 06:11:18;;;;;;;2.83;2.53;;;;;;;15.95;40.87;102132.38;5094659;28;20032;-43
2022/03/04 06:13:44;;;;;;;3.33;2.75;;;;;;;16.00;40.85;102132.88;5102570;28;20591;-43
2022/03/04 06:16:10;;;;;;;2.75;2.53;;;;;;;16.02;40.93;102138.13;5100279;28;20246;-40
2022/03/04 06:18:35;;;;;;;3.13;2.50;;;;;;;16.03;40.94;102139.84;5098348;28;20042;-42
2022/03/04 06:21:00;;;;;;;3.28;2.97;;;;;;;16.04;40.93;102141.53;5096302;28;20524;-46
2022/03/04 06:23:26;;;;;;;2.58;2.35;;;;;;;16.05;40.85;102152.13;5100976;28;20046;-41
2022/03/04 06:25:51;;;;;;;2.53;2.30;;;;;;;16.07;40.85;102142.16;5098450;28;20058;-42
2022/03/04 06:28:16;;;;;;;7.35;2.40;;;;;;;16.05;41.01;102144.09;5094083;28;20028;-37
2022/03/04 06:30:42;;;;;;;2.45;2.25;;;;;;;15.99;40.91;102140.06;5097192;28;20020;-37
2022/03/04 06:35:53;;;;;;;3.75;2.65;;;;;;;16.14;41.13;102153.25;5094623;28;20039;-42
2022/03/04 06:38:19;;;;;;;2.78;2.50;;;;;;;16.16;40.96;102162.06;5099603;28;20070;-40
2022/03/04 06:40:45;;;;;;;3.22;2.55;;;;;;;16.08;41.00;102145.69;5096898;28;20024;-40
2022/03/04 06:43:10;;;;;;;4.40;2.78;;;;;;;16.19;41.04;102159.97;5099629;28;20028;-40
2022/03/04 06:45:38;;;;;;;3.25;2.50;;;;;;;16.23;40.89;102169.50;5102416;28;20046;-37
2022/03/04 06:48:04;;;;;;;2.40;2.10;;;;;;;16.21;41.03;102165.22;5101109;28;20091;-37
2022/03/04 06:50:29;;;;;;;2.95;2.40;;;;;;;16.21;41.16;102159.84;5097509;28;20031;-40
2022/03/04 06:52:55;;;;;;;2.80;2.50;;;;;;;16.27;40.93;102167.44;5082501;28;20023;-40
2022/03/04 06:55:21;;;;;;;2.80;2.60;;;;;;;16.30;40.88;102172.53;5098906;28;20434;-40
2022/03/04 06:57:46;;;;;;;3.75;2.72;;;;;;;16.32;40.85;102175.13;5100505;28;20012;-40
2022/03/04 07:00:13;;;;;;;3.65;2.92;;;;;;;16.34;40.84;102170.47;5095091;28;20493;-41
2022/03/04 07:02:38;;;;;;;3.25;2.58;;;;;;;16.36;40.74;102165.84;5097331;28;20063;-40
2022/03/04 07:05:05;;;;;;;3.08;2.75;;;;;;;16.37;40.68;102176.47;5097380;28;20035;-40
2022/03/04 07:07:30;;;;;;;3.60;2.90;;;;;;;16.40;40.66;102175.38;5097194;28;20190;-45
2022/03/04 07:09:55;;;;;;;5.22;3.33;;;;;;;16.41;40.67;102172.56;5093744;28;20474;-44
2022/03/04 07:12:20;;;;;;;2.70;2.40;;;;;;;16.45;40.46;102173.19;5100778;28;20381;-42
2022/03/04 07:14:46;;;;;;;7.03;3.75;;;;;;;16.46;40.62;102169.50;5100941;28;20031;-41
2022/03/04 07:17:12;;;;;;;3.95;2.70;;;;;;;16.49;40.48;102172.81;5100720;28;20016;-42
2022/03/04 07:19:37;;;;;;;2.90;2.60;;;;;;;16.47;40.37;102161.31;5100372;28;20024;-41
2022/03/04 07:22:03;;;;;;;3.25;2.65;;;;;;;16.60;40.32;102177.31;5097247;28;20020;-41
2022/03/04 07:24:28;;;;;;;3.55;2.63;;;;;;;16.65;40.42;102182.31;5097203;28;20058;-43
2022/03/04 07:26:53;;;;;;;3.15;2.53;;;;;;;16.66;40.10;102170.63;5080017;28;20110;-41
2022/03/04 07:29:19;;;;;;;2.70;2.42;;;;;;;16.80;40.05;102186.50;5096451;28;20027;-44
2022/03/04 07:31:44;;;;;;;3.40;2.60;;;;;;;16.84;40.04;102176.38;5077151;28;20038;-40
2022/03/04 07:34:09;;;;;;;3.50;2.65;;;;;;;16.90;39.96;102187.44;5097024;28;20020;-42
2022/03/04 07:36:34;;;;;;;4.07;3.00;;;;;;;16.98;39.72;102184.16;5100600;28;20079;-40
2022/03/04 07:39:00;;;;;;;3.15;2.50;;;;;;;17.07;39.60;102185.22;5094571;28;20032;-43
2022/03/04 07:41:25;;;;;;;3.60;2.38;;;;;;;17.17;39.38;102187.03;5091859;28;20039;-42
2022/03/04 07:43:50;;;;;;;3.17;2.50;;;;;;;17.28;39.24;102193.34;5094535;28;20110;-41
2022/03/04 07:46:17;;;;;;;3.85;3.00;;;;;;;17.31;38.99;102185.06;5098405;28;20024;-38
2022/03/04 07:48:43;;;;;;;3.05;2.75;;;;;;;17.45;39.09;102204.41;5089296;28;20411;-38
2022/03/04 07:51:08;;;;;;;4.28;2.72;;;;;;;17.52;38.91;102190.47;5094705;28;20055;-42
2022/03/04 07:53:33;;;;;;;3.13;2.42;;;;;;;17.64;38.72;102195.69;5091593;28;20032;-37
2022/03/04 07:55:58;;;;;;;3.00;2.40;;;;;;;17.80;38.79;102203.34;5097878;28;20020;-37
2022/03/04 07:58:24;;;;;;;3.42;2.42;;;;;;;17.96;38.57;102206.41;5097334;28;20406;-43
2022/03/04 08:00:49;;;;;;;9.00;2.75;;;;;;;18.06;38.20;102192.19;5096376;28;20648;-41
2022/03/04 08:03:14;;;;;;;2.78;2.20;;;;;;;18.22;38.01;102206.03;5100481;28;20023;-41
2022/03/04 08:05:40;;;;;;;3.88;2.70;;;;;;;18.33;37.78;102214.03;5097538;28;20028;-37
2022/03/04 08:08:06;;;;;;;2.70;2.45;;;;;;;18.48;37.41;102214.56;5090373;28;20113;-37
2022/03/04 08:10:31;;;;;;;3.20;2.70;;;;;;;18.54;37.15;102197.00;5100066;28;20020;-37
2022/03/04 08:12:56;;;;;;;3.50;2.50;;;;;;;18.84;36.87;102215.00;5079241;28;20054;-37
2022/03/04 08:15:21;;;;;;;3.20;2.55;;;;;;;19.11;36.52;102208.97;5100130;28;20036;-42
2022/03/04 08:17:47;;;;;;;4.22;2.58;;;;;;;19.48;35.72;102201.09;5099166;28;20028;-38
2022/03/04 08:20:12;;;;;;;3.35;2.30;;;;;;;20.00;35.23;102206.22;5096000;28;20032;-38
2022/03/04 08:22:38;;;;;;;3.28;2.50;;;;;;;20.52;34.35;102214.78;5081576;28;20037;-37
2022/03/04 08:25:05;;;;;;;3.42;2.45;;;;;;;20.86;33.74;102202.44;5081252;28;20021;-39
2022/03/04 08:27:30;;;;;;;3.30;2.22;;;;;;;21.21;33.04;102200.78;5099112;28;20028;-37
2022/03/04 08:29:55;;;;;;;4.22;2.70;;;;;;;21.54;32.68;102210.13;5079213;28;20074;-43
2022/03/04 08:32:23;;;;;;;3.72;2.28;;;;;;;21.89;31.94;102217.38;5100047;28;20024;-37
2022/03/04 08:34:49;;;;;;;3.75;2.72;;;;;;;22.29;31.78;102218.69;5099193;28;20031;-39
2022/03/04 08:37:14;;;;;;;2.35;1.77;;;;;;;22.67;30.91;102214.69;5095767;28;20012;-55
2022/03/04 08:39:39;;;;;;;2.85;1.95;;;;;;;22.94;30.17;102207.41;5097092;28;20039;-40
2022/03/04 08:42:04;;;;;;;4.00;2.05;;;;;;;23.26;29.65;102220.19;5099333;28;20067;-39
2022/03/04 08:44:30;;;;;;;2.63;2.03;;;;;;;23.38;29.48;102220.72;5096228;28;20032;-42
2022/03/04 08:46:55;;;;;;;3.28;2.30;;;;;;;23.47;29.16;102218.88;5099456;28;20020;-40
2022/03/04 08:49:20;;;;;;;3.47;2.60;;;;;;;23.34;29.09;102198.50;5098449;28;20032;-40
2022/03/04 08:51:45;;;;;;;3.03;2.53;;;;;;;23.44;28.91;102217.34;5093725;28;20036;-40
2022/03/04 08:54:14;;;;;;;3.53;2.83;;;;;;;23.48;28.68;102223.28;5101359;28;20079;-42
2022/03/04 08:56:39;;;;;;;4.20;2.88;;;;;;;23.51;28.47;102199.38;5098937;28;20111;-43
2022/03/04 08:59:04;;;;;;;3.70;2.50;;;;;;;23.73;28.09;102216.91;5094060;28;20080;-43
2022/03/04 09:01:30;;;;;;;4.30;2.80;;;;;;;23.90;28.06;102218.59;5102122;28;20056;-45
2022/03/04 09:03:55;;;;;;;4.30;2.80;;;;;;;24.18;27.58;102226.41;5102840;28;20473;-45
2022/03/04 09:06:20;;;;;;;4.03;3.05;;;;;;;24.51;27.08;102226.34;5088887;28;20039;-46
2022/03/04 09:08:46;;;;;;;4.32;3.13;;;;;;;24.84;26.57;102232.53;5097403;28;20035;-42
2022/03/04 09:11:11;;;;;;;4.40;2.90;;;;;;;25.09;26.03;102225.97;5099961;28;20032;-42
2022/03/04 09:13:36;;;;;;;4.28;2.88;;;;;;;25.37;25.71;102229.06;5095684;28;20623;-44
2022/03/04 09:16:02;;;;;;;4.18;2.72;;;;;;;25.65;25.17;102223.06;5093846;28;20059;-43
2022/03/04 09:18:27;;;;;;;3.83;3.20;;;;;;;25.92;24.94;102232.59;5098210;28;20737;-45
2022/03/04 09:20:53;;;;;;;4.07;3.25;;;;;;;26.12;24.64;102220.16;5100013;28;20062;-44
2022/03/04 09:23:19;;;;;;;5.68;3.47;;;;;;;26.34;24.07;102220.28;5097436;28;20024;-42
2022/03/04 09:25:44;;;;;;;3.78;2.70;;;;;;;26.53;24.11;102232.53;5100107;28;20091;-43
2022/03/04 09:28:10;;;;;;;4.07;2.92;;;;;;;26.69;23.59;102223.34;5102282;28;20058;-43
2022/03/04 09:30:36;;;;;;;5.25;2.78;;;;;;;26.85;23.44;102223.97;5102788;28;20032;-43
2022/03/04 09:33:01;;;;;;;4.05;2.88;;;;;;;26.99;23.36;102227.72;5095396;28;20557;-45
2022/03/04 09:35:27;;;;;;;3.90;2.95;;;;;;;27.11;23.32;102228.94;5096597;28;20028;-42
2022/03/04 09:37:52;;;;;;;7.05;2.30;;;;;;;27.24;23.07;102211.88;5101427;28;20031;-43
2022/03/04 09:40:18;;;;;;;6.00;3.55;;;;;;;27.33;22.58;102210.72;5099868;28;20077;-43
2022/03/04 09:42:43;;;;;;;5.03;4.05;;;;;;;27.42;22.12;102214.16;5083300;28;20115;-42
2022/03/04 09:45:09;;;;;;;5.22;4.35;;;;;;;27.46;21.80;102210.00;5095904;28;20040;-46
2022/03/04 09:47:34;;;;;;;6.53;4.53;;;;;;;27.49;21.34;102198.69;5096989;28;20051;-46
2022/03/04 09:50:02;;;;;;;4.70;3.92;;;;;;;27.57;21.10;102209.50;5099325;28;20639;-46
2022/03/04 09:52:28;;;;;;;8.70;4.97;;;;;;;27.67;21.34;102200.97;5101617;28;20034;-41
2022/03/04 09:54:53;;;;;;;6.93;4.65;;;;;;;27.68;21.04;102199.91;5075200;28;20039;-42
2022/03/04 09:57:19;;;;;;;5.47;4.55;;;;;;;27.73;20.86;102202.94;5098148;28;20024;-42
2022/03/04 09:59:45;;;;;;;5.72;4.60;;;;;;;27.47;20.72;102197.19;5101751;28;20064;-45
2022/03/04 10:02:12;;;;;;;5.68;4.63;;;;;;;26.98;20.90;102208.81;5096663;28;20450;-41
2022/03/04 10:04:38;;;;;;;8.60;5.25;;;;;;;26.21;21.74;102210.03;5099088;28;20041;-44
2022/03/04 10:07:15;;;;;;;8.43;5.10;;;;;;;25.32;22.67;102206.97;5098054;28;20024;-43
2022/03/04 10:09:43;;;;;;;6.95;5.65;;;;;;;24.54;23.57;102217.84;5098984;28;20040;-43
2022/03/04 10:12:09;;;;;;;5.88;4.93;;;;;;;23.89;24.33;102207.91;5097894;28;20062;-44
2022/03/04 10:14:58;;;;;;;8.98;5.47;;;;;;;23.27;25.26;102208.31;5095871;28;20020;-42
2022/03/04 10:17:24;;;;;;;5.95;4.50;;;;;;;22.80;25.98;102199.81;5098463;28;20653;-39
2022/03/04 10:19:58;;;;;;;7.70;4.85;;;;;;;22.37;27.05;102198.94;5098673;28;20032;-37
2022/03/04 10:22:33;;;;;;;6.38;4.20;;;;;;;22.04;27.69;102193.25;5099000;28;20035;-39
2022/03/04 10:24:59;;;;;;;10.40;4.43;;;;;;;21.77;28.15;102196.13;5094565;28;20027;-42
2022/03/04 10:27:24;;;;;;;5.97;3.72;;;;;;;21.62;28.53;102214.75;5099869;28;20028;-46
2022/03/04 10:29:50;;;;;;;6.63;4.55;;;;;;;21.40;28.85;102207.94;5100701;28;20046;-42
2022/03/04 10:32:18;;;;;;;5.28;3.72;;;;;;;21.23;29.43;102212.28;5096933;28;20038;-42
2022/03/04 10:35:00;;;;;;;6.53;3.73;;;;;;;21.05;30.01;102206.00;5102198;28;20031;-44
2022/03/04 10:37:43;;;;;;;6.78;4.20;;;;;;;20.79;30.25;102190.50;5095549;28;20260;-42
2022/03/04 10:40:15;;;;;;;5.30;4.20;;;;;;;20.73;30.34;102204.63;5092594;28;20392;-43
2022/03/04 10:42:50;;;;;;;6.95;4.10;;;;;;;20.60;30.91;102196.88;5100120;28;20043;-43
2022/03/04 10:45:22;;;;;;;4.68;3.63;;;;;;;20.49;31.22;102209.69;5096583;28;20031;-44
2022/03/04 10:47:51;;;;;;;8.18;3.85;;;;;;;20.38;31.20;102203.41;5098086;28;20040;-39
2022/03/04 10:50:29;;;;;;;9.15;4.10;;;;;;;20.28;31.87;102197.22;5091234;28;20034;-41
2022/03/04 10:53:03;;;;;;;4.78;3.80;;;;;;;20.15;32.39;102191.28;5095209;28;20024;-39
2022/03/04 10:55:59;;;;;;;6.88;3.70;;;;;;;20.12;32.37;102194.25;5078557;28;20115;-41
2022/03/04 10:58:35;;;;;;;5.38;3.60;;;;;;;20.04;32.71;102196.84;5097538;28;20024;-47
2022/03/04 11:01:19;;;;;;;8.48;4.68;;;;;;;19.96;33.03;102190.34;5104446;28;20435;-44
2022/03/04 11:03:45;;;;;;;4.93;3.78;;;;;;;19.84;32.96;102182.53;5089047;28;20025;-42
2022/03/04 11:06:12;;;;;;;4.85;3.65;;;;;;;19.86;32.88;102191.31;5091991;28;20035;-43
2022/03/04 11:08:38;;;;;;;6.78;3.50;;;;;;;19.80;33.12;102198.16;5103711;28;20465;-42
2022/03/04 11:11:04;;;;;;;6.32;3.63;;;;;;;19.71;33.09;102180.97;5102693;28;20054;-40
2022/03/04 11:20:44;;;;;;;6.35;3.80;;;;;;;19.57;33.76;102184.06;5119077;27;1169859;-57
2022/03/04 11:23:17;;;;;;;8.90;4.38;;;;;;;19.54;33.80;102178.97;5141190;27;20279;-57
2022/03/04 11:25:44;;;;;;;5.35;3.90;;;;;;;19.51;34.51;102187.34;5139438;28;20041;-58
2022/03/04 11:28:15;;;;;;;4.65;3.53;;;;;;;19.52;34.42;102183.63;5136217;27;20031;-58
2022/03/04 11:30:44;;;;;;;5.65;3.75;;;;;;;19.53;34.82;102182.63;5120931;28;20106;-58